Time;durP1;ratioP1;P1;durP2;ratioP2;P2;SDS_P1;SDS_P2;PMS_P1;PMS_P2;Temp;Humidity;BMP_temperature;BMP_pressure;BME280_temperature;BME280_humidity;BME280_pressure;Samples;Min_cycle;Max_cycle;Signal;HPM_P1;HPM_P2
2022/02/14 17:01:16;;;;;;;7.00;2.90;;;12.60;79.50;;;;;;5530862;22;1462778;-74
2022/02/14 17:03:44;;;;;;;16.67;7.15;;;12.50;81.40;;;;;;6243118;22;20064;-73
2022/02/14 17:06:09;;;;;;;16.85;9.30;;;12.50;82.10;;;;;;6243309;23;20509;-73
2022/02/14 17:08:35;;;;;;;8.15;3.25;;;12.50;83.80;;;;;;6242842;23;20047;-73
2022/02/14 17:11:01;;;;;;;17.50;9.73;;;12.40;84.50;;;;;;6243294;23;20416;-71
2022/02/14 17:13:27;;;;;;;14.98;8.23;;;12.40;85.10;;;;;;6243901;22;20004;-73
2022/02/14 17:15:53;;;;;;;17.63;7.05;;;12.40;85.50;;;;;;6240074;22;19996;-72
2022/02/14 17:18:22;;;;;;;13.40;6.65;;;12.40;85.50;;;;;;6243043;22;20014;-72
2022/02/14 17:20:52;;;;;;;13.98;7.85;;;12.30;86.00;;;;;;6239487;22;20429;-72
2022/02/14 17:23:18;;;;;;;11.60;5.40;;;12.10;86.80;;;;;;6243276;22;20000;-73
2022/02/14 17:25:44;;;;;;;12.48;5.15;;;12.00;87.50;;;;;;6242988;22;20000;-73
2022/02/14 17:28:10;;;;;;;18.00;7.43;;;11.90;87.20;;;;;;6242847;22;20012;-72
2022/02/14 17:30:36;;;;;;;17.45;7.72;;;11.90;87.70;;;;;;6243493;22;20006;-74
2022/02/14 17:33:02;;;;;;;18.48;9.57;;;11.80;88.20;;;;;;6243294;22;20007;-73
2022/02/14 17:35:28;;;;;;;14.60;5.55;;;11.60;89.20;;;;;;6241770;22;20004;-73
2022/02/14 17:37:54;;;;;;;18.48;8.57;;;11.50;89.80;;;;;;6241891;23;20004;-73
2022/02/14 17:40:20;;;;;;;27.88;14.10;;;11.30;90.50;;;;;;6241819;23;20468;-73
2022/02/14 17:42:46;;;;;;;12.25;7.20;;;11.20;90.90;;;;;;6243440;23;20000;-73
2022/02/14 17:45:13;;;;;;;15.32;8.88;;;11.10;91.30;;;;;;6242993;23;20004;-72
2022/02/14 17:47:40;;;;;;;34.35;26.65;;;11.00;91.80;;;;;;6243485;23;20501;-72
2022/02/14 17:50:07;;;;;;;23.33;18.58;;;10.90;92.40;;;;;;6243528;22;20012;-72
2022/02/14 17:52:33;;;;;;;13.88;5.07;;;10.90;92.80;;;;;;6243350;22;20093;-73
2022/02/14 17:54:59;;;;;;;18.42;11.63;;;10.90;92.80;;;;;;6243178;22;20069;-72
2022/02/14 17:57:25;;;;;;;51.17;41.47;;;10.80;93.20;;;;;;6243384;22;20364;-72
2022/02/14 17:59:52;;;;;;;17.48;12.23;;;10.90;93.80;;;;;;6242865;22;20007;-72
2022/02/14 18:02:18;;;;;;;27.25;15.20;;;11.00;95.00;;;;;;6243050;23;20473;-72
2022/02/14 18:04:44;;;;;;;18.00;7.93;;;11.00;95.80;;;;;;6243298;23;20011;-72
2022/02/14 18:07:10;;;;;;;15.68;8.25;;;11.00;96.30;;;;;;6243337;23;20011;-73
2022/02/14 18:09:36;;;;;;;18.27;8.48;;;11.10;96.60;;;;;;6242965;23;20016;-73
2022/02/14 18:12:02;;;;;;;10.38;4.65;;;11.10;96.60;;;;;;6243274;23;19996;-72
2022/02/14 18:14:32;;;;;;;15.35;6.18;;;11.00;96.30;;;;;;6242681;23;20000;-72
2022/02/14 18:16:59;;;;;;;17.27;7.05;;;10.90;96.40;;;;;;6243358;23;20000;-72
2022/02/14 18:19:26;;;;;;;23.80;9.75;;;10.80;96.70;;;;;;6243164;23;20023;-72
2022/02/14 18:21:52;;;;;;;13.15;4.40;;;10.60;97.10;;;;;;6242841;23;20058;-73
2022/02/14 18:24:19;;;;;;;13.55;3.63;;;10.60;97.20;;;;;;6242607;23;20441;-72
2022/02/14 18:26:45;;;;;;;10.18;2.75;;;10.50;97.20;;;;;;6243186;23;20018;-73
2022/02/14 18:29:11;;;;;;;16.65;5.32;;;10.50;97.20;;;;;;6242569;23;20016;-72
2022/02/14 18:31:37;;;;;;;14.23;3.92;;;10.50;97.50;;;;;;6242960;23;20448;-72
2022/02/14 18:34:05;;;;;;;11.20;3.20;;;10.50;97.80;;;;;;6243175;23;20011;-73
2022/02/14 18:36:32;;;;;;;15.93;5.50;;;10.50;97.80;;;;;;6243080;23;20004;-73
2022/02/14 18:39:00;;;;;;;8.73;3.17;;;10.50;97.60;;;;;;6242649;23;20457;-72
2022/02/14 18:41:26;;;;;;;12.02;3.50;;;10.40;98.00;;;;;;6242932;23;20027;-72
2022/02/14 18:43:52;;;;;;;12.95;5.53;;;10.40;98.70;;;;;;6242500;23;20000;-72
2022/02/14 18:46:18;;;;;;;12.60;4.00;;;10.40;99.50;;;;;;6243428;23;20624;-72
2022/02/14 18:48:45;;;;;;;12.55;4.57;;;10.40;99.30;;;;;;6242802;23;20016;-72
2022/02/14 18:51:11;;;;;;;11.27;3.45;;;10.30;99.20;;;;;;6242565;23;20053;-72
2022/02/14 18:53:39;;;;;;;9.73;2.72;;;10.30;98.80;;;;;;6242638;23;20007;-72
2022/02/14 18:56:06;;;;;;;13.40;2.97;;;10.20;98.80;;;;;;6242872;23;20000;-72
2022/02/14 18:58:33;;;;;;;10.70;3.00;;;10.10;99.00;;;;;;6242831;23;20078;-72
2022/02/14 19:00:59;;;;;;;11.95;2.65;;;10.10;99.20;;;;;;6242042;23;20075;-72
2022/02/14 19:03:27;;;;;;;9.63;3.25;;;10.00;99.40;;;;;;6241966;23;20008;-72
2022/02/14 19:05:53;;;;;;;52.33;30.92;;;10.00;99.70;;;;;;6242470;23;20520;-72
2022/02/14 19:08:19;;;;;;;54.40;38.80;;;10.00;99.90;;;;;;6215127;23;20020;-73
2022/02/14 19:10:45;;;;;;;32.58;17.55;;;10.10;99.90;;;;;;6241690;23;20089;-72
2022/02/14 19:13:12;;;;;;;40.60;22.00;;;10.10;99.90;;;;;;6242409;23;20008;-72
2022/02/14 19:15:37;;;;;;;16.40;8.85;;;10.10;99.90;;;;;;6241989;23;20004;-72
2022/02/14 19:18:03;;;;;;;15.30;7.00;;;10.10;99.90;;;;;;6242684;23;20337;-72
2022/02/14 19:20:33;;;;;;;12.20;5.07;;;10.10;99.90;;;;;;6242253;23;20066;-72
2022/02/14 19:23:01;;;;;;;15.80;7.28;;;10.00;99.90;;;;;;6242290;23;20000;-72
2022/02/14 19:25:27;;;;;;;10.35;4.30;;;9.90;99.90;;;;;;6242107;23;20008;-72
2022/02/14 19:27:55;;;;;;;9.55;3.25;;;9.80;99.90;;;;;;6241943;23;20700;-72
2022/02/14 19:30:22;;;;;;;9.55;2.97;;;9.70;99.90;;;;;;6241835;23;20011;-71
2022/02/14 19:35:34;;;;;;;133.05;72.43;;;9.60;99.90;;;;;;6242081;23;20459;-71
2022/02/14 19:38:01;;;;;;;46.00;25.42;;;9.50;99.90;;;;;;6241645;23;20007;-72
2022/02/14 19:40:27;;;;;;;57.33;30.20;;;9.40;99.90;;;;;;6241480;23;20014;-72
2022/02/14 19:42:54;;;;;;;17.38;6.43;;;9.40;99.90;;;;;;6242040;23;19996;-70
2022/02/14 19:45:24;;;;;;;30.85;15.68;;;9.40;99.90;;;;;;6241862;23;20450;-72
2022/02/14 19:47:54;;;;;;;45.00;24.20;;;9.30;99.90;;;;;;6240822;23;20329;-72
2022/02/14 19:50:23;;;;;;;60.97;37.17;;;9.30;99.90;;;;;;6241868;23;20000;-72
2022/02/14 19:52:49;;;;;;;72.18;33.75;;;9.30;99.90;;;;;;6241966;23;20005;-73
2022/02/14 19:55:16;;;;;;;51.42;30.30;;;9.20;99.90;;;;;;6242159;23;20000;-72
2022/02/14 19:57:42;;;;;;;31.67;15.77;;;9.20;99.90;;;;;;6242226;23;20004;-72
2022/02/14 20:00:14;;;;;;;38.42;21.80;;;9.20;99.90;;;;;;6241819;23;20104;-72
2022/02/14 20:02:41;;;;;;;20.67;11.07;;;9.20;99.90;;;;;;6241973;23;20098;-72
2022/02/14 20:05:09;;;;;;;13.15;4.22;;;9.20;99.90;;;;;;6241285;23;20003;-72
2022/02/14 20:07:36;;;;;;;23.17;10.68;;;9.20;99.90;;;;;;6241343;23;20000;-72
2022/02/14 20:10:04;;;;;;;20.15;6.72;;;9.10;99.90;;;;;;6241868;23;19996;-72
2022/02/14 20:12:29;;;;;;;19.63;8.73;;;9.00;99.90;;;;;;6214571;23;20111;-72
2022/02/14 20:14:56;;;;;;;23.10;9.35;;;9.00;99.90;;;;;;6240679;23;20516;-72
2022/02/14 20:17:22;;;;;;;16.85;6.43;;;9.00;99.90;;;;;;6241383;23;20008;-72
2022/02/14 20:19:48;;;;;;;13.40;5.75;;;8.90;99.90;;;;;;6241592;23;20005;-72
2022/02/14 20:22:15;;;;;;;18.98;7.03;;;8.90;99.90;;;;;;6241078;23;20035;-72
2022/02/14 20:24:50;;;;;;;21.17;6.95;;;8.90;99.90;;;;;;6241088;23;20050;-72
2022/02/14 20:27:17;;;;;;;15.50;5.35;;;8.90;99.90;;;;;;6241317;23;20079;-72
2022/02/14 20:29:44;;;;;;;28.60;12.52;;;8.90;99.90;;;;;;6241651;23;20031;-71
2022/02/14 20:32:10;;;;;;;26.00;11.50;;;8.90;99.90;;;;;;6240907;23;20511;-72
2022/02/14 20:34:36;;;;;;;25.98;12.02;;;8.90;99.90;;;;;;6214833;23;20035;-72
2022/02/14 20:37:02;;;;;;;37.20;15.40;;;8.90;99.90;;;;;;6241942;23;20050;-72
2022/02/14 20:39:28;;;;;;;36.40;14.35;;;8.90;99.90;;;;;;6241676;23;20000;-72
2022/02/14 20:41:53;;;;;;;41.90;16.55;;;8.90;99.90;;;;;;6241012;23;20341;-72
2022/02/14 20:44:20;;;;;;;34.70;13.82;;;8.90;99.90;;;;;;6241581;23;20000;-72
2022/02/14 20:46:47;;;;;;;26.15;9.98;;;8.80;99.90;;;;;;6243191;23;20004;-72
2022/02/14 20:49:15;;;;;;;34.38;14.43;;;8.80;99.90;;;;;;6243867;23;20016;-72
2022/02/14 20:51:41;;;;;;;44.70;27.67;;;8.80;99.90;;;;;;6243041;23;20008;-72
2022/02/14 20:54:07;;;;;;;39.47;17.45;;;8.70;99.90;;;;;;6242476;23;20092;-72
2022/02/14 20:56:33;;;;;;;26.75;9.80;;;8.70;99.90;;;;;;6243380;23;20003;-72
2022/02/14 20:58:58;;;;;;;23.13;9.77;;;8.70;99.90;;;;;;6243670;23;20004;-72
2022/02/14 21:01:24;;;;;;;16.20;6.45;;;8.70;99.90;;;;;;6243223;23;20027;-72
2022/02/14 21:03:50;;;;;;;19.13;5.78;;;8.80;99.90;;;;;;6243260;23;20004;-72
2022/02/14 21:06:15;;;;;;;15.35;5.50;;;8.90;99.90;;;;;;6242719;23;20340;-72
2022/02/14 21:08:41;;;;;;;21.10;6.63;;;9.00;99.90;;;;;;6243048;23;20412;-72
2022/02/14 21:11:07;;;;;;;14.85;4.65;;;9.00;99.90;;;;;;6243325;23;20445;-72
2022/02/14 21:13:33;;;;;;;12.02;3.10;;;9.00;99.90;;;;;;6243497;23;20008;-72
2022/02/14 21:16:01;;;;;;;9.77;2.88;;;9.00;99.90;;;;;;6243617;23;20038;-72
2022/02/14 21:18:27;;;;;;;14.88;3.08;;;8.90;99.90;;;;;;6242851;23;20000;-72
2022/02/14 21:20:55;;;;;;;20.65;9.32;;;8.80;99.90;;;;;;6243254;23;20468;-72
2022/02/14 21:23:21;;;;;;;19.73;6.57;;;8.80;99.90;;;;;;6243980;23;20011;-73
2022/02/14 21:25:47;;;;;;;16.33;4.07;;;8.80;99.90;;;;;;6243250;23;20030;-72
2022/02/14 21:28:12;;;;;;;14.77;4.65;;;8.80;99.90;;;;;;6243459;23;20524;-72
2022/02/14 21:30:38;;;;;;;10.57;3.20;;;8.70;99.90;;;;;;6243068;23;20010;-73
2022/02/14 21:33:05;;;;;;;17.08;3.38;;;8.80;99.90;;;;;;6243601;23;20000;-73
2022/02/14 21:35:30;;;;;;;14.57;5.70;;;8.80;99.90;;;;;;6243023;23;20004;-72
2022/02/14 21:37:56;;;;;;;26.50;12.48;;;8.80;99.90;;;;;;6242755;23;20012;-72
2022/02/14 21:40:23;;;;;;;36.38;14.68;;;8.70;99.90;;;;;;6243175;23;20023;-72
2022/02/14 21:42:49;;;;;;;25.67;9.02;;;8.60;99.90;;;;;;6242819;23;20004;-72
2022/02/14 21:45:14;;;;;;;31.55;12.70;;;8.50;99.90;;;;;;6243655;23;20007;-72
2022/02/14 21:47:41;;;;;;;22.33;7.13;;;8.40;99.90;;;;;;6243034;23;20015;-72
2022/02/14 21:50:07;;;;;;;39.42;14.25;;;8.30;99.90;;;;;;6243212;23;20004;-72
2022/02/14 21:52:33;;;;;;;40.35;15.55;;;8.20;99.90;;;;;;6242736;23;20078;-72
2022/02/14 21:54:59;;;;;;;44.28;18.05;;;8.20;99.90;;;;;;6242846;23;20054;-72
2022/02/14 21:57:25;;;;;;;45.92;20.92;;;8.20;99.90;;;;;;6243036;23;20427;-72
2022/02/14 21:59:51;;;;;;;23.92;7.60;;;8.10;99.90;;;;;;6242677;23;20004;-72
2022/02/14 22:02:18;;;;;;;29.75;9.02;;;8.10;99.90;;;;;;6243241;23;20066;-72
2022/02/14 22:07:34;;;;;;;15.15;5.95;;;7.90;99.90;;;;;;6243094;23;20015;-72
2022/02/14 22:10:01;;;;;;;19.58;7.40;;;7.90;99.90;;;;;;6242972;23;20014;-72
2022/02/14 22:12:32;;;;;;;22.42;8.07;;;7.80;99.90;;;;;;6242498;23;20063;-72
2022/02/14 22:14:58;;;;;;;29.38;10.70;;;7.80;99.90;;;;;;6242922;23;20031;-72
2022/02/14 22:17:24;;;;;;;20.73;5.85;;;7.70;99.90;;;;;;6242532;23;20345;-72
2022/02/14 22:19:50;;;;;;;15.88;5.20;;;7.70;99.90;;;;;;6215888;23;20004;-72
2022/02/14 22:22:17;;;;;;;32.08;8.07;;;7.70;99.90;;;;;;6243055;23;20000;-72
2022/02/14 22:24:43;;;;;;;38.65;12.30;;;7.70;99.90;;;;;;6242744;23;20084;-72
2022/02/14 22:27:09;;;;;;;30.52;9.90;;;7.70;99.90;;;;;;6242812;23;20061;-72
2022/02/14 22:29:35;;;;;;;23.25;7.32;;;7.80;99.90;;;;;;6242330;23;20376;-72
2022/02/14 22:32:02;;;;;;;22.50;5.60;;;7.80;99.90;;;;;;6242844;23;20004;-72
2022/02/14 22:34:28;;;;;;;25.10;7.28;;;7.90;99.90;;;;;;6242266;23;20178;-72
2022/02/14 22:36:54;;;;;;;20.15;6.28;;;7.90;99.90;;;;;;6243064;23;20004;-72
2022/02/14 22:39:23;;;;;;;24.67;7.95;;;7.90;99.90;;;;;;6242440;23;20012;-72
2022/02/14 22:41:54;;;;;;;13.32;4.05;;;7.90;99.90;;;;;;6242941;23;20014;-72
2022/02/14 22:44:20;;;;;;;;;;;8.00;99.90;;;;;;6243123;23;20007;-72
2022/02/14 22:46:47;;;;;;;16.63;4.00;;;7.90;99.90;;;;;;6242745;23;19904;-72
2022/02/14 22:49:13;;;;;;;19.52;5.47;;;7.90;99.90;;;;;;6242380;23;20062;-72
2022/02/14 22:51:39;;;;;;;17.85;5.20;;;7.80;99.90;;;;;;6242642;23;20016;-72
2022/02/14 22:54:04;;;;;;;20.08;6.28;;;7.80;99.90;;;;;;6242033;23;20000;-72
2022/02/14 22:56:30;;;;;;;22.85;6.68;;;7.90;99.90;;;;;;6242997;23;20366;-72
2022/02/14 22:58:56;;;;;;;22.48;5.65;;;7.80;99.90;;;;;;6242560;23;20008;-72
2022/02/14 23:02:56;;;;;;;11.93;3.08;;;7.80;99.90;;;;;;6242606;23;20012;-72
2022/02/14 23:04:10;;;;;;;14.65;3.60;;;7.90;99.90;;;;;;6242295;23;20015;-72
2022/02/14 23:14:48;;;;;;;14.25;2.30;;;8.20;99.90;;;;;;6242371;23;20055;-72
2022/02/14 23:17:14;;;;;;;10.90;2.35;;;8.20;99.90;;;;;;6242118;23;19996;-72
2022/02/14 23:19:40;;;;;;;12.98;2.60;;;8.20;99.90;;;;;;6242360;23;20003;-72
2022/02/14 23:22:06;;;;;;;11.45;2.80;;;8.20;99.90;;;;;;6242036;23;20007;-72
2022/02/14 23:24:32;;;;;;;12.82;2.70;;;8.10;99.90;;;;;;6242672;23;19997;-72
2022/02/14 23:26:59;;;;;;;13.52;2.28;;;8.10;99.90;;;;;;6242542;23;20008;-72
2022/02/14 23:29:25;;;;;;;14.57;2.38;;;8.00;99.90;;;;;;6242287;23;20018;-72
2022/02/14 23:31:50;;;;;;;13.02;2.08;;;8.00;99.90;;;;;;6242153;23;20079;-72
2022/02/14 23:34:16;;;;;;;11.90;2.33;;;7.90;99.90;;;;;;6242022;23;20471;-72
2022/02/14 23:36:42;;;;;;;16.95;2.25;;;7.80;99.90;;;;;;6242682;23;20020;-73
2022/02/14 23:39:07;;;;;;;17.83;2.63;;;7.70;99.90;;;;;;6241938;23;20004;-72
2022/02/14 23:41:33;;;;;;;11.90;2.55;;;7.70;99.90;;;;;;6241692;23;20007;-72
2022/02/14 23:43:59;;;;;;;16.65;2.72;;;7.70;99.90;;;;;;6242200;23;20004;-72
2022/02/14 23:46:25;;;;;;;11.48;2.53;;;7.60;99.90;;;;;;6242309;23;20060;-72
2022/02/14 23:48:54;;;;;;;16.30;2.95;;;7.60;99.90;;;;;;6241588;23;20016;-71
2022/02/14 23:51:20;;;;;;;14.13;2.67;;;7.60;99.90;;;;;;6241962;23;20079;-72
2022/02/14 23:53:46;;;;;;;11.80;3.13;;;7.60;99.90;;;;;;6242292;23;20000;-72
2022/02/14 23:56:12;;;;;;;19.08;3.28;;;7.60;99.90;;;;;;6242342;23;20016;-72
2022/02/14 23:58:38;;;;;;;18.05;3.47;;;7.70;99.90;;;;;;6241736;23;20031;-72
